sensor_id;sensor_type;location;lat;lon;timestamp;pressure;altitude;pressure_sealevel;temperature;humidity
65553;BME280;52465;51.560;14.368;2023-01-27T00:00:36;100730.34;;;6.39;68.83
65553;BME280;52465;51.560;14.368;2023-01-27T00:03:02;100733.69;;;6.41;68.62
65553;BME280;52465;51.560;14.368;2023-01-27T00:05:27;100730.97;;;6.42;68.47
65553;BME280;52465;51.560;14.368;2023-01-27T00:07:55;100727.19;;;6.35;68.47
65553;BME280;52465;51.560;14.368;2023-01-27T00:10:23;100732.13;;;6.38;68.64
65553;BME280;52465;51.560;14.368;2023-01-27T00:12:49;100684.38;;;6.17;68.78
65553;BME280;52465;51.560;14.368;2023-01-27T00:15:33;100719.38;;;6.35;68.65
65553;BME280;52465;51.560;14.368;2023-01-27T00:18:00;100711.56;;;6.35;68.59
65553;BME280;52465;51.560;14.368;2023-01-27T00:20:26;100703.41;;;6.28;68.48
65553;BME280;52465;51.560;14.368;2023-01-27T00:23:21;100694.91;;;6.26;68.33
65553;BME280;52465;51.560;14.368;2023-01-27T00:26:09;100706.00;;;6.40;68.83
65553;BME280;52465;51.560;14.368;2023-01-27T00:28:51;100706.94;;;6.39;68.72
65553;BME280;52465;51.560;14.368;2023-01-27T00:31:16;100685.66;;;6.22;68.42
65553;BME280;52465;51.560;14.368;2023-01-27T00:34:00;100711.31;;;6.38;68.44
65553;BME280;52465;51.560;14.368;2023-01-27T00:36:35;100690.66;;;6.25;68.91
65553;BME280;52465;51.560;14.368;2023-01-27T00:39:04;100711.56;;;6.35;68.33
65553;BME280;52465;51.560;14.368;2023-01-27T00:41:33;100701.19;;;6.24;68.97
65553;BME280;52465;51.560;14.368;2023-01-27T00:44:00;100685.44;;;6.14;68.93
65553;BME280;52465;51.560;14.368;2023-01-27T00:46:28;100728.69;;;6.38;68.14
65553;BME280;52465;51.560;14.368;2023-01-27T00:48:54;100718.44;;;6.36;68.79
65553;BME280;52465;51.560;14.368;2023-01-27T00:51:26;100717.47;;;6.37;68.10
65553;BME280;52465;51.560;14.368;2023-01-27T00:53:51;100709.06;;;6.33;68.55
65553;BME280;52465;51.560;14.368;2023-01-27T00:56:17;100723.63;;;6.36;68.73
65553;BME280;52465;51.560;14.368;2023-01-27T00:58:42;100709.69;;;6.26;68.48
65553;BME280;52465;51.560;14.368;2023-01-27T01:01:13;100676.09;;;6.12;68.62
65553;BME280;52465;51.560;14.368;2023-01-27T01:03:38;100669.72;;;6.04;68.34
65553;BME280;52465;51.560;14.368;2023-01-27T01:06:07;100709.81;;;6.24;68.88
65553;BME280;52465;51.560;14.368;2023-01-27T01:08:36;100708.03;;;6.25;68.69
65553;BME280;52465;51.560;14.368;2023-01-27T01:11:04;100722.31;;;6.30;68.96
65553;BME280;52465;51.560;14.368;2023-01-27T01:13:35;100720.44;;;6.32;68.31
65553;BME280;52465;51.560;14.368;2023-01-27T01:16:09;100739.34;;;6.34;68.64
65553;BME280;52465;51.560;14.368;2023-01-27T01:18:35;100721.16;;;6.23;68.35
65553;BME280;52465;51.560;14.368;2023-01-27T01:21:02;100730.69;;;6.34;68.66
65553;BME280;52465;51.560;14.368;2023-01-27T01:23:28;100727.88;;;6.26;68.42
65553;BME280;52465;51.560;14.368;2023-01-27T01:25:54;100733.31;;;6.34;69.16
65553;BME280;52465;51.560;14.368;2023-01-27T01:28:33;100715.81;;;6.25;68.39
65553;BME280;52465;51.560;14.368;2023-01-27T01:31:13;100723.97;;;6.31;68.77
65553;BME280;52465;51.560;14.368;2023-01-27T01:33:40;100713.34;;;6.23;68.66
65553;BME280;52465;51.560;14.368;2023-01-27T01:36:08;100699.16;;;6.16;68.85
65553;BME280;52465;51.560;14.368;2023-01-27T01:38:35;100725.97;;;6.28;68.80
65553;BME280;52465;51.560;14.368;2023-01-27T01:41:01;100716.78;;;6.24;68.93
65553;BME280;52465;51.560;14.368;2023-01-27T01:43:29;100710.97;;;6.20;68.46
65553;BME280;52465;51.560;14.368;2023-01-27T01:45:56;100727.53;;;6.30;68.52
65553;BME280;52465;51.560;14.368;2023-01-27T01:48:30;100728.34;;;6.31;68.89
65553;BME280;52465;51.560;14.368;2023-01-27T01:51:02;100708.84;;;6.14;68.49
65553;BME280;52465;51.560;14.368;2023-01-27T01:53:36;100737.94;;;6.30;68.72
65553;BME280;52465;51.560;14.368;2023-01-27T01:56:09;100713.34;;;6.12;68.62
65553;BME280;52465;51.560;14.368;2023-01-27T02:02:12;100727.88;;;6.26;68.76
65553;BME280;52465;51.560;14.368;2023-01-27T02:04:52;100723.03;;;6.21;69.02
65553;BME280;52465;51.560;14.368;2023-01-27T02:07:30;100735.44;;;6.29;68.20
65553;BME280;52465;51.560;14.368;2023-01-27T02:10:03;100717.13;;;6.19;68.52
65553;BME280;52465;51.560;14.368;2023-01-27T02:12:28;100717.25;;;6.18;68.68
65553;BME280;52465;51.560;14.368;2023-01-27T02:14:54;100712.97;;;6.17;68.50
65553;BME280;52465;51.560;14.368;2023-01-27T02:17:20;100685.31;;;5.93;68.31
65553;BME280;52465;51.560;14.368;2023-01-27T02:20:10;100735.56;;;6.27;68.50
65553;BME280;52465;51.560;14.368;2023-01-27T02:22:58;100741.69;;;6.26;68.74
65553;BME280;52465;51.560;14.368;2023-01-27T02:28:02;100747.25;;;6.22;68.47
65553;BME280;52465;51.560;14.368;2023-01-27T02:30:31;100733.19;;;6.13;68.12
65553;BME280;52465;51.560;14.368;2023-01-27T02:32:57;100744.06;;;6.18;68.99
65553;BME280;52465;51.560;14.368;2023-01-27T02:38:17;100743.69;;;6.12;68.43
65553;BME280;52465;51.560;14.368;2023-01-27T02:43:50;100730.59;;;6.13;68.94
65553;BME280;52465;51.560;14.368;2023-01-27T02:46:26;100740.38;;;6.21;68.56
65553;BME280;52465;51.560;14.368;2023-01-27T02:48:53;100734.84;;;6.14;68.63
65553;BME280;52465;51.560;14.368;2023-01-27T02:51:19;100733.75;;;6.05;68.11
65553;BME280;52465;51.560;14.368;2023-01-27T02:53:45;100751.97;;;6.17;68.83
65553;BME280;52465;51.560;14.368;2023-01-27T02:56:10;100728.78;;;6.02;68.44
65553;BME280;52465;51.560;14.368;2023-01-27T02:58:39;100752.22;;;6.14;69.39
65553;BME280;52465;51.560;14.368;2023-01-27T03:01:05;100753.63;;;6.18;68.63
65553;BME280;52465;51.560;14.368;2023-01-27T03:03:31;100762.84;;;6.22;69.02
65553;BME280;52465;51.560;14.368;2023-01-27T03:05:57;100720.50;;;5.97;68.49
65553;BME280;52465;51.560;14.368;2023-01-27T03:08:22;100729.63;;;6.03;68.50
65553;BME280;52465;51.560;14.368;2023-01-27T03:10:50;100760.25;;;6.22;68.78
65553;BME280;52465;51.560;14.368;2023-01-27T03:13:22;100741.19;;;6.10;68.36
65553;BME280;52465;51.560;14.368;2023-01-27T03:15:48;100721.00;;;6.02;68.57
65553;BME280;52465;51.560;14.368;2023-01-27T03:18:33;100756.13;;;6.19;68.70
65553;BME280;52465;51.560;14.368;2023-01-27T03:21:08;100745.56;;;6.09;69.06
65553;BME280;52465;51.560;14.368;2023-01-27T03:23:34;100726.31;;;6.01;68.49
65553;BME280;52465;51.560;14.368;2023-01-27T03:26:06;100742.03;;;6.10;68.63
65553;BME280;52465;51.560;14.368;2023-01-27T03:28:32;100751.38;;;6.13;68.58
65553;BME280;52465;51.560;14.368;2023-01-27T03:31:00;100768.88;;;6.22;68.83
65553;BME280;52465;51.560;14.368;2023-01-27T03:33:26;100759.53;;;6.08;68.47
65553;BME280;52465;51.560;14.368;2023-01-27T03:35:55;100787.19;;;6.21;68.85
65553;BME280;52465;51.560;14.368;2023-01-27T03:38:39;100769.91;;;6.08;68.86
65553;BME280;52465;51.560;14.368;2023-01-27T03:41:23;100788.13;;;6.20;68.67
65553;BME280;52465;51.560;14.368;2023-01-27T03:44:10;100783.06;;;6.18;68.98
65553;BME280;52465;51.560;14.368;2023-01-27T03:46:54;100776.56;;;6.13;68.69
65553;BME280;52465;51.560;14.368;2023-01-27T03:49:23;100759.50;;;5.97;68.50
65553;BME280;52465;51.560;14.368;2023-01-27T03:51:49;100752.41;;;5.99;68.59
65553;BME280;52465;51.560;14.368;2023-01-27T03:54:17;100757.03;;;6.07;68.79
65553;BME280;52465;51.560;14.368;2023-01-27T03:56:46;100755.38;;;6.06;68.60
65553;BME280;52465;51.560;14.368;2023-01-27T03:59:12;100783.75;;;6.20;68.14
65553;BME280;52465;51.560;14.368;2023-01-27T04:01:38;100771.84;;;6.18;68.48
65553;BME280;52465;51.560;14.368;2023-01-27T04:04:08;100772.88;;;6.15;68.53
65553;BME280;52465;51.560;14.368;2023-01-27T04:06:52;100768.38;;;6.17;68.47
65553;BME280;52465;51.560;14.368;2023-01-27T04:09:28;100773.59;;;6.17;68.29
65553;BME280;52465;51.560;14.368;2023-01-27T04:11:57;100760.22;;;6.10;68.40
65553;BME280;52465;51.560;14.368;2023-01-27T04:14:34;100760.34;;;6.09;68.72
65553;BME280;52465;51.560;14.368;2023-01-27T04:17:13;100766.03;;;6.14;68.41
65553;BME280;52465;51.560;14.368;2023-01-27T04:19:39;100727.00;;;5.92;68.81
65553;BME280;52465;51.560;14.368;2023-01-27T04:22:09;100772.66;;;6.18;68.27
65553;BME280;52465;51.560;14.368;2023-01-27T04:24:35;100778.78;;;6.17;68.62
65553;BME280;52465;51.560;14.368;2023-01-27T04:27:06;100774.44;;;6.18;68.82
65553;BME280;52465;51.560;14.368;2023-01-27T04:29:36;100748.63;;;6.03;68.76
65553;BME280;52465;51.560;14.368;2023-01-27T04:32:05;100757.63;;;6.10;68.64
65553;BME280;52465;51.560;14.368;2023-01-27T04:34:31;100760.13;;;6.12;68.16
65553;BME280;52465;51.560;14.368;2023-01-27T04:36:57;100768.50;;;6.16;68.77
65553;BME280;52465;51.560;14.368;2023-01-27T04:39:27;100763.56;;;6.13;68.30
65553;BME280;52465;51.560;14.368;2023-01-27T04:41:55;100733.03;;;5.92;68.75
65553;BME280;52465;51.560;14.368;2023-01-27T04:44:21;100772.06;;;6.15;68.37
65553;BME280;52465;51.560;14.368;2023-01-27T04:46:47;100777.97;;;6.17;68.54
65553;BME280;52465;51.560;14.368;2023-01-27T04:49:13;100739.03;;;5.93;68.63
65553;BME280;52465;51.560;14.368;2023-01-27T04:51:42;100759.97;;;6.02;68.67
65553;BME280;52465;51.560;14.368;2023-01-27T04:54:08;100734.06;;;5.90;68.49
65553;BME280;52465;51.560;14.368;2023-01-27T04:56:39;100792.63;;;6.18;68.86
65553;BME280;52465;51.560;14.368;2023-01-27T04:59:12;100781.03;;;6.10;68.60
65553;BME280;52465;51.560;14.368;2023-01-27T05:01:45;100771.22;;;6.03;68.86
65553;BME280;52465;51.560;14.368;2023-01-27T05:04:11;100768.38;;;6.06;68.39
65553;BME280;52465;51.560;14.368;2023-01-27T05:06:36;100782.66;;;6.12;68.15
65553;BME280;52465;51.560;14.368;2023-01-27T05:09:02;100797.94;;;6.16;68.78
65553;BME280;52465;51.560;14.368;2023-01-27T05:11:28;100772.97;;;6.02;68.52
65553;BME280;52465;51.560;14.368;2023-01-27T05:13:53;100769.56;;;6.02;68.75
65553;BME280;52465;51.560;14.368;2023-01-27T05:16:29;100750.88;;;5.97;68.21
65553;BME280;52465;51.560;14.368;2023-01-27T05:18:57;100777.59;;;6.10;68.50
65553;BME280;52465;51.560;14.368;2023-01-27T05:21:25;100789.44;;;6.14;68.59
65553;BME280;52465;51.560;14.368;2023-01-27T05:23:55;100777.69;;;5.97;68.61
65553;BME280;52465;51.560;14.368;2023-01-27T05:26:23;100808.31;;;6.16;68.71
65553;BME280;52465;51.560;14.368;2023-01-27T05:28:52;100770.22;;;5.93;68.71
65553;BME280;52465;51.560;14.368;2023-01-27T05:31:24;100810.22;;;6.14;68.55
65553;BME280;52465;51.560;14.368;2023-01-27T05:33:56;100779.88;;;5.91;68.14
65553;BME280;52465;51.560;14.368;2023-01-27T05:36:27;100778.25;;;5.90;68.72
65553;BME280;52465;51.560;14.368;2023-01-27T05:38:58;100749.69;;;5.66;68.65
65553;BME280;52465;51.560;14.368;2023-01-27T05:41:25;100794.22;;;5.96;68.88
65553;BME280;52465;51.560;14.368;2023-01-27T05:44:00;100797.53;;;5.98;68.66
65553;BME280;52465;51.560;14.368;2023-01-27T05:46:27;100805.44;;;5.97;68.27
65553;BME280;52465;51.560;14.368;2023-01-27T05:48:57;100797.25;;;5.90;68.72
65553;BME280;52465;51.560;14.368;2023-01-27T05:51:24;100777.13;;;5.81;68.54
65553;BME280;52465;51.560;14.368;2023-01-27T05:53:53;100816.34;;;6.02;68.51
65553;BME280;52465;51.560;14.368;2023-01-27T05:56:22;100806.88;;;6.01;68.28
65553;BME280;52465;51.560;14.368;2023-01-27T05:58:48;100804.72;;;5.95;68.27
65553;BME280;52465;51.560;14.368;2023-01-27T06:01:20;100815.97;;;5.95;68.56
65553;BME280;52465;51.560;14.368;2023-01-27T06:03:47;100806.81;;;5.90;68.23
65553;BME280;52465;51.560;14.368;2023-01-27T06:06:15;100755.00;;;5.64;68.44
65553;BME280;52465;51.560;14.368;2023-01-27T06:08:46;100711.72;;;5.41;67.78
65553;BME280;52465;51.560;14.368;2023-01-27T06:11:12;100791.91;;;5.80;68.06
65553;BME280;52465;51.560;14.368;2023-01-27T06:13:39;100795.56;;;5.89;68.05
65553;BME280;52465;51.560;14.368;2023-01-27T06:16:07;100817.28;;;6.01;68.36
65553;BME280;52465;51.560;14.368;2023-01-27T06:18:36;100813.00;;;6.00;68.51
65553;BME280;52465;51.560;14.368;2023-01-27T06:23:40;100832.63;;;6.04;68.47
65553;BME280;52465;51.560;14.368;2023-01-27T06:29:11;100836.19;;;6.03;68.16
65553;BME280;52465;51.560;14.368;2023-01-27T06:31:36;100836.19;;;6.03;68.05
65553;BME280;52465;51.560;14.368;2023-01-27T06:34:02;100812.34;;;5.85;68.55
65553;BME280;52465;51.560;14.368;2023-01-27T06:36:28;100821.47;;;5.91;68.32
65553;BME280;52465;51.560;14.368;2023-01-27T06:39:04;100841.72;;;5.98;68.29
65553;BME280;52465;51.560;14.368;2023-01-27T06:41:29;100852.09;;;5.98;68.21
65553;BME280;52465;51.560;14.368;2023-01-27T06:43:56;100843.47;;;5.98;68.58
65553;BME280;52465;51.560;14.368;2023-01-27T06:46:22;100851.78;;;6.03;68.06
65553;BME280;52465;51.560;14.368;2023-01-27T06:48:48;100834.16;;;5.95;68.42
65553;BME280;52465;51.560;14.368;2023-01-27T06:51:14;100831.78;;;5.92;68.09
65553;BME280;52465;51.560;14.368;2023-01-27T06:53:39;100844.19;;;6.00;67.76
65553;BME280;52465;51.560;14.368;2023-01-27T06:56:08;100834.25;;;5.94;68.31
65553;BME280;52465;51.560;14.368;2023-01-27T06:58:34;100845.00;;;6.00;68.14
65553;BME280;52465;51.560;14.368;2023-01-27T07:01:00;100857.31;;;5.98;67.98
65553;BME280;52465;51.560;14.368;2023-01-27T07:03:27;100819.53;;;5.81;68.17
65553;BME280;52465;51.560;14.368;2023-01-27T07:05:55;100825.34;;;5.85;67.99
65553;BME280;52465;51.560;14.368;2023-01-27T07:08:21;100844.03;;;5.90;68.14
65553;BME280;52465;51.560;14.368;2023-01-27T07:10:48;100811.44;;;5.62;68.72
65553;BME280;52465;51.560;14.368;2023-01-27T07:13:14;100855.31;;;6.02;68.01
65553;BME280;52465;51.560;14.368;2023-01-27T07:15:42;100839.13;;;5.98;68.03
65553;BME280;52465;51.560;14.368;2023-01-27T07:18:09;100846.22;;;5.96;68.01
65553;BME280;52465;51.560;14.368;2023-01-27T07:20:35;100843.59;;;5.96;68.70
65553;BME280;52465;51.560;14.368;2023-01-27T07:23:04;100838.63;;;5.93;68.55
65553;BME280;52465;51.560;14.368;2023-01-27T07:25:32;100836.44;;;5.87;67.83
65553;BME280;52465;51.560;14.368;2023-01-27T07:28:01;100853.19;;;5.96;68.62
65553;BME280;52465;51.560;14.368;2023-01-27T07:30:27;100782.69;;;5.52;67.89
65553;BME280;52465;51.560;14.368;2023-01-27T07:33:01;100836.44;;;5.87;68.34
65553;BME280;52465;51.560;14.368;2023-01-27T07:35:26;100859.56;;;6.03;68.24
65553;BME280;52465;51.560;14.368;2023-01-27T07:37:52;100810.88;;;5.70;68.57
65553;BME280;52465;51.560;14.368;2023-01-27T07:40:18;100854.34;;;5.92;67.71
65553;BME280;52465;51.560;14.368;2023-01-27T07:42:44;100840.94;;;5.85;68.04
65553;BME280;52465;51.560;14.368;2023-01-27T07:45:09;100860.03;;;5.97;68.15
65553;BME280;52465;51.560;14.368;2023-01-27T07:47:35;100842.22;;;5.79;68.34
65553;BME280;52465;51.560;14.368;2023-01-27T07:50:01;100868.78;;;5.96;68.37
65553;BME280;52465;51.560;14.368;2023-01-27T07:52:27;100870.53;;;5.95;68.11
65553;BME280;52465;51.560;14.368;2023-01-27T07:54:52;100876.91;;;5.91;68.07
65553;BME280;52465;51.560;14.368;2023-01-27T07:57:20;100893.56;;;6.00;67.96
65553;BME280;52465;51.560;14.368;2023-01-27T07:59:46;100868.25;;;5.91;68.21
65553;BME280;52465;51.560;14.368;2023-01-27T08:02:15;100895.34;;;5.99;67.88
65553;BME280;52465;51.560;14.368;2023-01-27T08:04:43;100892.75;;;5.99;68.05
65553;BME280;52465;51.560;14.368;2023-01-27T08:07:13;100900.53;;;5.99;68.23
65553;BME280;52465;51.560;14.368;2023-01-27T08:09:40;100828.81;;;5.49;67.96
65553;BME280;52465;51.560;14.368;2023-01-27T08:12:06;100891.22;;;5.97;68.28
65553;BME280;52465;51.560;14.368;2023-01-27T08:14:34;100907.38;;;6.00;67.85
65553;BME280;52465;51.560;14.368;2023-01-27T08:17:09;100894.84;;;5.94;68.16
65553;BME280;52465;51.560;14.368;2023-01-27T08:19:35;100901.09;;;5.92;68.15
65553;BME280;52465;51.560;14.368;2023-01-27T08:22:03;100883.66;;;5.81;68.30
65553;BME280;52465;51.560;14.368;2023-01-27T08:24:29;100899.50;;;5.89;68.41
65553;BME280;52465;51.560;14.368;2023-01-27T08:26:54;100910.44;;;5.94;68.07
65553;BME280;52465;51.560;14.368;2023-01-27T08:29:20;100888.34;;;5.76;67.94
65553;BME280;52465;51.560;14.368;2023-01-27T08:31:49;100923.34;;;5.96;68.13
65553;BME280;52465;51.560;14.368;2023-01-27T08:34:17;100925.13;;;5.95;68.00
65553;BME280;52465;51.560;14.368;2023-01-27T08:36:42;100915.75;;;5.93;68.24
65553;BME280;52465;51.560;14.368;2023-01-27T08:39:15;100934.31;;;5.99;68.18
65553;BME280;52465;51.560;14.368;2023-01-27T08:41:43;100915.97;;;5.90;68.13
65553;BME280;52465;51.560;14.368;2023-01-27T08:44:14;100923.44;;;5.94;68.09
65553;BME280;52465;51.560;14.368;2023-01-27T08:46:40;100909.72;;;5.92;67.87
65553;BME280;52465;51.560;14.368;2023-01-27T08:49:06;100920.00;;;5.94;67.97
65553;BME280;52465;51.560;14.368;2023-01-27T08:51:32;100927.59;;;5.97;67.94
65553;BME280;52465;51.560;14.368;2023-01-27T08:54:01;100925.72;;;5.99;68.11
65553;BME280;52465;51.560;14.368;2023-01-27T08:56:26;100913.44;;;5.88;68.13
65553;BME280;52465;51.560;14.368;2023-01-27T08:58:52;100905.88;;;5.85;68.20
65553;BME280;52465;51.560;14.368;2023-01-27T09:01:19;100929.13;;;5.99;67.95
65553;BME280;52465;51.560;14.368;2023-01-27T09:03:44;100923.66;;;5.91;68.04
65553;BME280;52465;51.560;14.368;2023-01-27T09:06:27;100940.72;;;5.95;68.18
65553;BME280;52465;51.560;14.368;2023-01-27T09:08:53;100913.69;;;5.85;67.72
65553;BME280;52465;51.560;14.368;2023-01-27T09:11:41;100930.06;;;5.98;67.96
65553;BME280;52465;51.560;14.368;2023-01-27T09:14:08;100932.91;;;5.95;67.59
65553;BME280;52465;51.560;14.368;2023-01-27T09:16:34;100933.81;;;5.94;68.03
65553;BME280;52465;51.560;14.368;2023-01-27T09:18:59;100946.63;;;5.97;68.07
65553;BME280;52465;51.560;14.368;2023-01-27T09:21:26;100928.09;;;5.89;67.92
65553;BME280;52465;51.560;14.368;2023-01-27T09:23:52;100939.53;;;5.99;67.77
65553;BME280;52465;51.560;14.368;2023-01-27T09:26:18;100938.56;;;6.00;67.77
65553;BME280;52465;51.560;14.368;2023-01-27T09:28:44;100924.91;;;5.86;67.98
65553;BME280;52465;51.560;14.368;2023-01-27T09:31:10;100953.34;;;6.00;67.90
65553;BME280;52465;51.560;14.368;2023-01-27T09:33:40;100945.03;;;5.95;67.75
65553;BME280;52465;51.560;14.368;2023-01-27T09:36:18;100937.78;;;5.87;68.17
65553;BME280;52465;51.560;14.368;2023-01-27T09:38:55;100909.56;;;5.70;67.67
65553;BME280;52465;51.560;14.368;2023-01-27T09:41:54;100941.84;;;5.91;67.78
65553;BME280;52465;51.560;14.368;2023-01-27T09:52:52;100949.91;;;5.99;68.02
65553;BME280;52465;51.560;14.368;2023-01-27T09:55:48;100934.97;;;5.90;68.29
65553;BME280;52465;51.560;14.368;2023-01-27T10:07:19;100932.38;;;5.90;67.68
65553;BME280;52465;51.560;14.368;2023-01-27T10:20:42;100898.25;;;5.71;67.97
65553;BME280;52465;51.560;14.368;2023-01-27T10:23:29;100939.84;;;5.95;68.27
65553;BME280;52465;51.560;14.368;2023-01-27T10:26:22;100948.16;;;6.00;67.87
65553;BME280;52465;51.560;14.368;2023-01-27T10:28:56;100873.66;;;5.64;67.64
65553;BME280;52465;51.560;14.368;2023-01-27T10:31:48;100946.38;;;6.00;67.83
65553;BME280;52465;51.560;14.368;2023-01-27T10:34:27;100939.03;;;5.94;68.16
65553;BME280;52465;51.560;14.368;2023-01-27T10:37:27;100938.81;;;5.97;67.61
65553;BME280;52465;51.560;14.368;2023-01-27T10:40:06;100938.56;;;6.00;68.21
65553;BME280;52465;51.560;14.368;2023-01-27T10:42:45;100945.56;;;6.00;67.86
65553;BME280;52465;51.560;14.368;2023-01-27T10:45:31;100937.88;;;5.98;67.73
65553;BME280;52465;51.560;14.368;2023-01-27T10:50:45;100938.56;;;6.00;68.31
65553;BME280;52465;51.560;14.368;2023-01-27T10:53:18;100942.03;;;6.01;68.00
65553;BME280;52465;51.560;14.368;2023-01-27T10:56:09;100939.53;;;5.99;67.76
65553;BME280;52465;51.560;14.368;2023-01-27T10:58:50;100949.91;;;5.99;67.87
65553;BME280;52465;51.560;14.368;2023-01-27T11:01:33;100944.22;;;5.94;67.75
65553;BME280;52465;51.560;14.368;2023-01-27T11:04:11;100922.44;;;5.84;67.58
65553;BME280;52465;51.560;14.368;2023-01-27T11:06:40;100942.03;;;6.01;67.71
65553;BME280;52465;51.560;14.368;2023-01-27T11:09:16;100933.75;;;5.96;67.95
65553;BME280;52465;51.560;14.368;2023-01-27T11:11:46;100935.50;;;5.95;67.78
65553;BME280;52465;51.560;14.368;2023-01-27T11:14:30;100942.88;;;6.01;67.74
65553;BME280;52465;51.560;14.368;2023-01-27T11:17:07;100950.66;;;6.01;68.00
65553;BME280;52465;51.560;14.368;2023-01-27T11:22:29;100952.31;;;6.02;67.83
65553;BME280;52465;51.560;14.368;2023-01-27T11:25:15;100957.63;;;6.01;67.85
65553;BME280;52465;51.560;14.368;2023-01-27T11:28:02;100959.28;;;6.02;67.99
65553;BME280;52465;51.560;14.368;2023-01-27T11:30:37;100955.22;;;5.98;67.98
65553;BME280;52465;51.560;14.368;2023-01-27T11:36:24;100954.19;;;6.00;68.02
65553;BME280;52465;51.560;14.368;2023-01-27T11:38:49;100952.53;;;5.99;67.23
65553;BME280;52465;51.560;14.368;2023-01-27T11:41:15;100931.34;;;5.93;67.71
65553;BME280;52465;51.560;14.368;2023-01-27T11:43:41;100939.03;;;5.94;67.91
65553;BME280;52465;51.560;14.368;2023-01-27T11:46:11;100938.19;;;5.94;67.87
65553;BME280;52465;51.560;14.368;2023-01-27T11:48:42;100937.75;;;6.00;67.94
65553;BME280;52465;51.560;14.368;2023-01-27T11:51:19;100939.66;;;5.98;67.72
65553;BME280;52465;51.560;14.368;2023-01-27T12:07:54;100929.41;;;6.07;68.86
65553;BME280;52465;51.560;14.368;2023-01-27T12:10:34;100911.56;;;6.03;68.54
65553;BME280;52465;51.560;14.368;2023-01-27T12:15:36;100889.44;;;5.97;68.51
65553;BME280;52465;51.560;14.368;2023-01-27T12:18:14;100915.84;;;6.15;68.20
65553;BME280;52465;51.560;14.368;2023-01-27T12:20:45;100910.78;;;6.14;68.12
65553;BME280;52465;51.560;14.368;2023-01-27T12:23:22;100914.19;;;6.14;68.09
65553;BME280;52465;51.560;14.368;2023-01-27T12:25:53;100907.34;;;6.13;67.91
65553;BME280;52465;51.560;14.368;2023-01-27T12:28:25;100895.72;;;6.06;67.70
65553;BME280;52465;51.560;14.368;2023-01-27T12:30:55;100896.22;;;6.11;68.14
65553;BME280;52465;51.560;14.368;2023-01-27T12:33:28;100893.03;;;6.07;68.19
65553;BME280;52465;51.560;14.368;2023-01-27T12:35:59;100872.53;;;5.92;67.56
65553;BME280;52465;51.560;14.368;2023-01-27T12:38:29;100881.41;;;6.00;67.92
65553;BME280;52465;51.560;14.368;2023-01-27T12:41:00;100889.59;;;6.07;67.34
65553;BME280;52465;51.560;14.368;2023-01-27T12:43:27;100832.25;;;5.73;67.64
65553;BME280;52465;51.560;14.368;2023-01-27T12:48:31;100874.56;;;5.99;67.76
65553;BME280;52465;51.560;14.368;2023-01-27T12:51:13;100881.75;;;5.96;67.42
65553;BME280;52465;51.560;14.368;2023-01-27T12:53:39;100894.06;;;6.05;67.48
65553;BME280;52465;51.560;14.368;2023-01-27T12:56:21;100899.88;;;6.08;67.69
65553;BME280;52465;51.560;14.368;2023-01-27T13:03:44;100903.25;;;5.98;67.58
65553;BME280;52465;51.560;14.368;2023-01-27T13:06:17;100904.47;;;6.05;67.30
65553;BME280;52465;51.560;14.368;2023-01-27T13:08:48;100909.56;;;6.06;67.57
65553;BME280;52465;51.560;14.368;2023-01-27T13:13:56;100897.72;;;6.02;67.74
65553;BME280;52465;51.560;14.368;2023-01-27T13:16:26;100901.16;;;6.03;68.04
65553;BME280;52465;51.560;14.368;2023-01-27T13:18:54;100902.81;;;6.04;67.98
65553;BME280;52465;51.560;14.368;2023-01-27T13:21:32;100898.69;;;6.01;67.70
65553;BME280;52465;51.560;14.368;2023-01-27T13:24:04;100892.25;;;5.94;67.23
65553;BME280;52465;51.560;14.368;2023-01-27T13:26:38;100903.75;;;6.03;67.79
65553;BME280;52465;51.560;14.368;2023-01-27T13:31:56;100903.06;;;6.01;67.74
65553;BME280;52465;51.560;14.368;2023-01-27T13:34:37;100905.75;;;5.99;67.71
65553;BME280;52465;51.560;14.368;2023-01-27T13:37:30;100906.13;;;6.06;67.74
65553;BME280;52465;51.560;14.368;2023-01-27T13:40:15;100913.09;;;6.05;67.56
65553;BME280;52465;51.560;14.368;2023-01-27T13:42:55;100873.97;;;5.83;67.97
65553;BME280;52465;51.560;14.368;2023-01-27T13:45:24;100913.91;;;6.06;67.52
65553;BME280;52465;51.560;14.368;2023-01-27T13:47:59;100907.63;;;5.97;67.68
65553;BME280;52465;51.560;14.368;2023-01-27T13:50:33;100916.59;;;5.93;66.98
65553;BME280;52465;51.560;14.368;2023-01-27T13:53:00;100917.69;;;6.02;68.17
65553;BME280;52465;51.560;14.368;2023-01-27T13:55:43;100920.88;;;6.05;67.73
65553;BME280;52465;51.560;14.368;2023-01-27T14:01:23;100889.97;;;5.90;67.52
65553;BME280;52465;51.560;14.368;2023-01-27T14:06:47;100856.41;;;5.63;67.72
65553;BME280;52465;51.560;14.368;2023-01-27T14:18:04;100930.47;;;6.05;67.54
65553;BME280;52465;51.560;14.368;2023-01-27T14:26:16;100938.38;;;6.03;67.92
65553;BME280;52465;51.560;14.368;2023-01-27T14:29:05;100935.66;;;6.05;67.59
65553;BME280;52465;51.560;14.368;2023-01-27T14:34:38;100927.34;;;6.00;68.24
65553;BME280;52465;51.560;14.368;2023-01-27T14:37:43;100930.56;;;6.03;67.61
65553;BME280;52465;51.560;14.368;2023-01-27T14:40:20;100924.44;;;6.04;67.60
65553;BME280;52465;51.560;14.368;2023-01-27T14:43:00;100899.13;;;5.82;67.45
65553;BME280;52465;51.560;14.368;2023-01-27T14:45:36;100929.03;;;6.01;67.61
65553;BME280;52465;51.560;14.368;2023-01-27T14:51:18;100940.34;;;6.00;67.07
65553;BME280;52465;51.560;14.368;2023-01-27T14:56:38;100953.97;;;6.03;67.48
65553;BME280;52465;51.560;14.368;2023-01-27T14:59:28;100940.91;;;5.92;67.87
65553;BME280;52465;51.560;14.368;2023-01-27T15:05:03;100964.25;;;6.05;67.60
65553;BME280;52465;51.560;14.368;2023-01-27T15:10:21;100968.13;;;5.99;67.88